sensor_id;sensor_type;location;lat;lon;timestamp;pressure;altitude;pressure_sealevel;temperature;humidity
79230;BME280;68663;49.122;17.544;2023-06-24T00:00:00;99600.84;;;26.57;48.24
79230;BME280;68663;49.122;17.544;2023-06-24T00:02:26;99608.56;;;26.56;48.10
79230;BME280;68663;49.122;17.544;2023-06-24T00:04:51;99599.69;;;26.54;47.63
79230;BME280;68663;49.122;17.544;2023-06-24T00:07:19;99607.41;;;26.54;47.62
79230;BME280;68663;49.122;17.544;2023-06-24T00:09:47;99599.34;;;26.52;47.31
79230;BME280;68663;49.122;17.544;2023-06-24T00:12:12;99592.88;;;26.52;47.67
79230;BME280;68663;49.122;17.544;2023-06-24T00:14:44;99609.09;;;26.51;47.32
79230;BME280;68663;49.122;17.544;2023-06-24T00:17:09;99607.94;;;26.49;47.80
79230;BME280;68663;49.122;17.544;2023-06-24T00:19:36;99604.66;;;26.50;47.67
79230;BME280;68663;49.122;17.544;2023-06-24T00:22:02;99599.78;;;26.51;47.70
79230;BME280;68663;49.122;17.544;2023-06-24T00:24:29;99605.44;;;26.51;48.14
79230;BME280;68663;49.122;17.544;2023-06-24T00:26:55;99606.25;;;26.51;48.19
79230;BME280;68663;49.122;17.544;2023-06-24T00:29:21;99606.25;;;26.51;48.32
79230;BME280;68663;49.122;17.544;2023-06-24T00:31:47;99612.72;;;26.52;48.10
79230;BME280;68663;49.122;17.544;2023-06-24T00:34:12;99609.09;;;26.51;48.11
79230;BME280;68663;49.122;17.544;2023-06-24T00:36:38;99606.25;;;26.51;48.05
79230;BME280;68663;49.122;17.544;2023-06-24T00:39:06;99612.72;;;26.52;48.13
79230;BME280;68663;49.122;17.544;2023-06-24T00:41:33;99618.41;;;26.52;47.93
79230;BME280;68663;49.122;17.544;2023-06-24T00:43:59;99612.72;;;26.52;48.18
79230;BME280;68663;49.122;17.544;2023-06-24T00:46:26;99615.56;;;26.52;48.05
79230;BME280;68663;49.122;17.544;2023-06-24T00:48:56;99616.81;;;26.51;47.65
79230;BME280;68663;49.122;17.544;2023-06-24T00:51:22;99615.19;;;26.50;47.43
79230;BME280;68663;49.122;17.544;2023-06-24T00:53:52;99610.78;;;26.49;47.50
79230;BME280;68663;49.122;17.544;2023-06-24T00:56:19;99616.09;;;26.47;47.39
79230;BME280;68663;49.122;17.544;2023-06-24T00:58:46;99618.56;;;26.45;47.41
79230;BME280;68663;49.122;17.544;2023-06-24T01:01:12;99622.63;;;26.44;47.91
79230;BME280;68663;49.122;17.544;2023-06-24T01:03:38;99623.00;;;26.46;47.44
79230;BME280;68663;49.122;17.544;2023-06-24T01:06:03;99613.69;;;26.45;47.69
79230;BME280;68663;49.122;17.544;2023-06-24T01:08:29;99613.25;;;26.47;48.05
79230;BME280;68663;49.122;17.544;2023-06-24T01:10:55;99618.91;;;26.47;47.93
79230;BME280;68663;49.122;17.544;2023-06-24T01:13:21;99629.03;;;26.48;48.00
79230;BME280;68663;49.122;17.544;2023-06-24T01:15:46;99618.91;;;26.47;47.97
79230;BME280;68663;49.122;17.544;2023-06-24T01:18:24;99616.09;;;26.47;47.67
79230;BME280;68663;49.122;17.544;2023-06-24T01:21:03;99614.47;;;26.46;47.69
79230;BME280;68663;49.122;17.544;2023-06-24T01:23:47;99610.41;;;26.47;47.96
79230;BME280;68663;49.122;17.544;2023-06-24T01:26:33;99612.44;;;26.46;47.90
79230;BME280;68663;49.122;17.544;2023-06-24T01:32:26;99610.50;;;26.43;47.49
79230;BME280;68663;49.122;17.544;2023-06-24T01:34:59;99608.09;;;26.42;47.35
79230;BME280;68663;49.122;17.544;2023-06-24T01:37:40;99610.94;;;26.42;47.24
79230;BME280;68663;49.122;17.544;2023-06-24T01:42:43;99615.91;;;26.38;47.80
79230;BME280;68663;49.122;17.544;2023-06-24T01:45:12;99617.13;;;26.37;48.28
79230;BME280;68663;49.122;17.544;2023-06-24T01:47:43;99617.03;;;26.40;47.63
79230;BME280;68663;49.122;17.544;2023-06-24T01:50:11;99619.09;;;26.40;47.94
79230;BME280;68663;49.122;17.544;2023-06-24T01:52:41;99617.84;;;26.41;47.99
79230;BME280;68663;49.122;17.544;2023-06-24T01:55:09;99617.84;;;26.41;47.82
79230;BME280;68663;49.122;17.544;2023-06-24T01:57:36;99618.28;;;26.39;47.89
79230;BME280;68663;49.122;17.544;2023-06-24T02:00:04;99614.66;;;26.39;47.66
79230;BME280;68663;49.122;17.544;2023-06-24T02:02:35;99621.91;;;26.40;48.07
79230;BME280;68663;49.122;17.544;2023-06-24T02:05:02;99626.34;;;26.41;48.05
79230;BME280;68663;49.122;17.544;2023-06-24T02:07:30;99623.50;;;26.41;47.67
79230;BME280;68663;49.122;17.544;2023-06-24T02:09:57;99623.50;;;26.41;47.94
79230;BME280;68663;49.122;17.544;2023-06-24T02:12:24;99617.84;;;26.41;48.06
79230;BME280;68663;49.122;17.544;2023-06-24T02:14:52;99608.97;;;26.39;47.52
79230;BME280;68663;49.122;17.544;2023-06-24T02:17:20;99610.22;;;26.38;47.33
79230;BME280;68663;49.122;17.544;2023-06-24T02:19:47;99619.97;;;26.37;47.46
79230;BME280;68663;49.122;17.544;2023-06-24T02:22:14;99618.72;;;26.38;47.76
79230;BME280;68663;49.122;17.544;2023-06-24T02:24:40;99620.31;;;26.39;48.04
79230;BME280;68663;49.122;17.544;2023-06-24T02:27:07;99613.84;;;26.38;47.89
79230;BME280;68663;49.122;17.544;2023-06-24T02:29:36;99610.22;;;26.38;47.99
79230;BME280;68663;49.122;17.544;2023-06-24T02:32:02;99610.22;;;26.38;47.98
79230;BME280;68663;49.122;17.544;2023-06-24T02:34:28;99600.47;;;26.39;47.81
79230;BME280;68663;49.122;17.544;2023-06-24T02:36:54;99607.38;;;26.38;47.76
79230;BME280;68663;49.122;17.544;2023-06-24T02:39:19;99604.56;;;26.38;48.22
79230;BME280;68663;49.122;17.544;2023-06-24T02:41:45;99607.38;;;26.38;47.83
79230;BME280;68663;49.122;17.544;2023-06-24T02:44:13;99599.75;;;26.34;48.21
79230;BME280;68663;49.122;17.544;2023-06-24T02:46:39;99602.59;;;26.34;47.90
79230;BME280;68663;49.122;17.544;2023-06-24T02:49:05;99597.72;;;26.35;47.66
79230;BME280;68663;49.122;17.544;2023-06-24T02:51:31;99604.19;;;26.36;47.66
79230;BME280;68663;49.122;17.544;2023-06-24T02:53:57;99598.97;;;26.34;47.70
79230;BME280;68663;49.122;17.544;2023-06-24T02:56:24;99596.94;;;26.34;47.91
79230;BME280;68663;49.122;17.544;2023-06-24T02:58:50;99593.72;;;26.32;47.80
79230;BME280;68663;49.122;17.544;2023-06-24T03:01:17;99591.31;;;26.31;47.75
79230;BME280;68663;49.122;17.544;2023-06-24T03:03:44;99596.63;;;26.29;47.55
79230;BME280;68663;49.122;17.544;2023-06-24T03:06:14;99602.72;;;26.27;47.82
79230;BME280;68663;49.122;17.544;2023-06-24T03:08:42;99596.25;;;26.27;47.99
79230;BME280;68663;49.122;17.544;2023-06-24T03:11:08;99600.34;;;26.26;48.30
79230;BME280;68663;49.122;17.544;2023-06-24T03:13:33;99596.69;;;26.25;48.26
79230;BME280;68663;49.122;17.544;2023-06-24T03:15:58;99594.66;;;26.26;47.91
79230;BME280;68663;49.122;17.544;2023-06-24T03:18:24;99604.41;;;26.25;48.39
79230;BME280;68663;49.122;17.544;2023-06-24T03:20:49;99609.28;;;26.24;48.37
79230;BME280;68663;49.122;17.544;2023-06-24T03:23:15;99618.13;;;26.26;48.66
79230;BME280;68663;49.122;17.544;2023-06-24T03:25:40;99615.66;;;26.28;48.35
79230;BME280;68663;49.122;17.544;2023-06-24T03:28:06;99611.59;;;26.29;48.52
79230;BME280;68663;49.122;17.544;2023-06-24T03:30:34;99618.84;;;26.30;48.37
79230;BME280;68663;49.122;17.544;2023-06-24T03:32:59;99619.31;;;26.29;48.70
79230;BME280;68663;49.122;17.544;2023-06-24T03:35:25;99622.94;;;26.29;48.41
79230;BME280;68663;49.122;17.544;2023-06-24T03:37:50;99616.03;;;26.30;48.51
79230;BME280;68663;49.122;17.544;2023-06-24T03:40:17;99626.91;;;26.32;48.44
79230;BME280;68663;49.122;17.544;2023-06-24T03:42:42;99633.41;;;26.32;48.66
79230;BME280;68663;49.122;17.544;2023-06-24T03:45:08;99637.06;;;26.33;48.78
79230;BME280;68663;49.122;17.544;2023-06-24T03:47:33;99646.34;;;26.33;48.82
79230;BME280;68663;49.122;17.544;2023-06-24T03:49:58;99641.09;;;26.32;48.49
79230;BME280;68663;49.122;17.544;2023-06-24T03:52:25;99647.59;;;26.32;48.88
79230;BME280;68663;49.122;17.544;2023-06-24T03:54:50;99643.53;;;26.33;48.56
79230;BME280;68663;49.122;17.544;2023-06-24T03:57:16;99648.41;;;26.33;48.90
79230;BME280;68663;49.122;17.544;2023-06-24T03:59:41;99649.19;;;26.33;48.71
79230;BME280;68663;49.122;17.544;2023-06-24T04:02:07;99647.97;;;26.34;48.88
79230;BME280;68663;49.122;17.544;2023-06-24T04:04:36;99655.28;;;26.32;48.17
79230;BME280;68663;49.122;17.544;2023-06-24T04:07:02;99662.19;;;26.31;48.54
79230;BME280;68663;49.122;17.544;2023-06-24T04:09:37;99657.75;;;26.30;48.42
79230;BME280;68663;49.122;17.544;2023-06-24T04:12:03;99665.09;;;26.27;48.23
79230;BME280;68663;49.122;17.544;2023-06-24T04:14:29;99663.50;;;26.26;48.33
79230;BME280;68663;49.122;17.544;2023-06-24T04:16:54;99664.28;;;26.27;48.70
79230;BME280;68663;49.122;17.544;2023-06-24T04:19:20;99673.59;;;26.27;48.71
79230;BME280;68663;49.122;17.544;2023-06-24T04:21:45;99678.03;;;26.28;48.97
79230;BME280;68663;49.122;17.544;2023-06-24T04:24:10;99676.78;;;26.29;48.79
79230;BME280;68663;49.122;17.544;2023-06-24T04:26:36;99673.16;;;26.29;49.07
79230;BME280;68663;49.122;17.544;2023-06-24T04:29:01;99679.63;;;26.29;48.69
79230;BME280;68663;49.122;17.544;2023-06-24T04:31:27;99682.47;;;26.29;48.85
79230;BME280;68663;49.122;17.544;2023-06-24T04:33:53;99685.28;;;26.29;49.14
79230;BME280;68663;49.122;17.544;2023-06-24T04:36:19;99692.56;;;26.30;49.00
79230;BME280;68663;49.122;17.544;2023-06-24T04:38:44;99688.13;;;26.29;49.17
79230;BME280;68663;49.122;17.544;2023-06-24T04:41:09;99690.97;;;26.29;48.73
79230;BME280;68663;49.122;17.544;2023-06-24T04:43:35;99684.06;;;26.30;49.08
79230;BME280;68663;49.122;17.544;2023-06-24T04:46:01;99694.16;;;26.31;49.17
79230;BME280;68663;49.122;17.544;2023-06-24T04:48:27;99692.56;;;26.30;48.97
79230;BME280;68663;49.122;17.544;2023-06-24T04:50:52;99696.63;;;26.29;48.73
79230;BME280;68663;49.122;17.544;2023-06-24T04:53:20;99693.44;;;26.27;48.82
79230;BME280;68663;49.122;17.544;2023-06-24T04:55:45;99697.50;;;26.26;48.72
79230;BME280;68663;49.122;17.544;2023-06-24T04:58:11;99704.84;;;26.24;48.75
79230;BME280;68663;49.122;17.544;2023-06-24T05:00:36;99703.25;;;26.23;49.06
79230;BME280;68663;49.122;17.544;2023-06-24T05:03:01;99700.84;;;26.21;48.99
79230;BME280;68663;49.122;17.544;2023-06-24T05:05:27;99700.50;;;26.19;49.13
79230;BME280;68663;49.122;17.544;2023-06-24T05:07:52;99708.91;;;26.23;49.23
79230;BME280;68663;49.122;17.544;2023-06-24T05:10:18;99705.28;;;26.22;49.19
79230;BME280;68663;49.122;17.544;2023-06-24T05:12:43;99701.22;;;26.23;49.03
79230;BME280;68663;49.122;17.544;2023-06-24T05:15:09;99709.72;;;26.23;49.06
79230;BME280;68663;49.122;17.544;2023-06-24T05:17:34;99711.31;;;26.24;49.33
79230;BME280;68663;49.122;17.544;2023-06-24T05:20:00;99715.75;;;26.25;49.08
79230;BME280;68663;49.122;17.544;2023-06-24T05:22:25;99715.75;;;26.25;49.26
79230;BME280;68663;49.122;17.544;2023-06-24T05:24:51;99712.13;;;26.25;49.02
79230;BME280;68663;49.122;17.544;2023-06-24T05:27:16;99720.19;;;26.26;49.25
79230;BME280;68663;49.122;17.544;2023-06-24T05:29:42;99718.59;;;26.25;49.07
79230;BME280;68663;49.122;17.544;2023-06-24T05:32:08;99725.06;;;26.26;49.21
79230;BME280;68663;49.122;17.544;2023-06-24T05:34:33;99723.88;;;26.23;49.27
79230;BME280;68663;49.122;17.544;2023-06-24T05:37:00;99714.31;;;26.17;48.75
79230;BME280;68663;49.122;17.544;2023-06-24T05:39:25;99722.81;;;26.17;49.24
79230;BME280;68663;49.122;17.544;2023-06-24T05:41:51;99723.66;;;26.14;49.13
79230;BME280;68663;49.122;17.544;2023-06-24T05:44:16;99730.22;;;26.11;49.04
79230;BME280;68663;49.122;17.544;2023-06-24T05:46:46;99735.88;;;26.11;48.98
79230;BME280;68663;49.122;17.544;2023-06-24T05:49:12;99739.94;;;26.10;49.13
79230;BME280;68663;49.122;17.544;2023-06-24T05:51:37;99742.41;;;26.08;49.39
79230;BME280;68663;49.122;17.544;2023-06-24T05:54:03;99744.88;;;26.06;49.16
79230;BME280;68663;49.122;17.544;2023-06-24T05:56:28;99751.34;;;26.07;49.42
79230;BME280;68663;49.122;17.544;2023-06-24T05:58:55;99745.63;;;26.10;48.91
79230;BME280;68663;49.122;17.544;2023-06-24T06:01:21;99739.94;;;26.10;48.97
79230;BME280;68663;49.122;17.544;2023-06-24T06:03:48;99735.16;;;26.07;49.13
79230;BME280;68663;49.122;17.544;2023-06-24T06:06:15;99734.28;;;26.10;49.68
79230;BME280;68663;49.122;17.544;2023-06-24T06:08:41;99739.94;;;26.10;49.80
79230;BME280;68663;49.122;17.544;2023-06-24T06:11:07;99739.94;;;26.10;50.08
79230;BME280;68663;49.122;17.544;2023-06-24T06:13:33;99735.88;;;26.11;50.30
79230;BME280;68663;49.122;17.544;2023-06-24T06:15:58;99739.16;;;26.10;49.84
79230;BME280;68663;49.122;17.544;2023-06-24T06:18:24;99739.06;;;26.13;50.43
79230;BME280;68663;49.122;17.544;2023-06-24T06:20:49;99742.72;;;26.14;50.12
79230;BME280;68663;49.122;17.544;2023-06-24T06:23:15;99741.13;;;26.13;50.30
79230;BME280;68663;49.122;17.544;2023-06-24T06:25:40;99744.75;;;26.13;49.99
79230;BME280;68663;49.122;17.544;2023-06-24T06:28:06;99747.56;;;26.13;50.31
79230;BME280;68663;49.122;17.544;2023-06-24T06:30:31;99746.41;;;26.11;49.99
79230;BME280;68663;49.122;17.544;2023-06-24T06:32:57;99745.63;;;26.10;50.00
79230;BME280;68663;49.122;17.544;2023-06-24T06:35:22;99747.22;;;26.11;50.23
79230;BME280;68663;49.122;17.544;2023-06-24T06:37:47;99749.69;;;26.09;50.00
79230;BME280;68663;49.122;17.544;2023-06-24T06:40:18;99749.69;;;26.09;50.54
79230;BME280;68663;49.122;17.544;2023-06-24T06:42:43;99755.72;;;26.11;50.43
79230;BME280;68663;49.122;17.544;2023-06-24T06:45:09;99765.81;;;26.12;50.57
79230;BME280;68663;49.122;17.544;2023-06-24T06:47:35;99764.59;;;26.13;50.41
79230;BME280;68663;49.122;17.544;2023-06-24T06:50:00;99769.03;;;26.14;50.88
79230;BME280;68663;49.122;17.544;2023-06-24T06:52:26;99776.28;;;26.15;50.45
79230;BME280;68663;49.122;17.544;2023-06-24T06:54:52;99774.25;;;26.16;50.41
79230;BME280;68663;49.122;17.544;2023-06-24T06:57:18;99777.88;;;26.16;50.76
79230;BME280;68663;49.122;17.544;2023-06-24T06:59:43;99776.66;;;26.17;50.52
79230;BME280;68663;49.122;17.544;2023-06-24T07:02:09;99773.81;;;26.17;50.61
79230;BME280;68663;49.122;17.544;2023-06-24T07:04:34;99783.19;;;26.14;50.50
79230;BME280;68663;49.122;17.544;2023-06-24T07:06:59;99777.59;;;26.11;50.87
79230;BME280;68663;49.122;17.544;2023-06-24T07:09:25;99773.16;;;26.10;51.30
79230;BME280;68663;49.122;17.544;2023-06-24T07:11:50;99764.28;;;26.08;51.30
79230;BME280;68663;49.122;17.544;2023-06-24T07:14:16;99769.16;;;26.07;51.48
79230;BME280;68663;49.122;17.544;2023-06-24T07:16:41;99775.63;;;26.08;51.50
79230;BME280;68663;49.122;17.544;2023-06-24T07:19:06;99768.78;;;26.05;51.50
79230;BME280;68663;49.122;17.544;2023-06-24T07:21:32;99765.97;;;26.05;51.52
79230;BME280;68663;49.122;17.544;2023-06-24T07:23:57;99770.38;;;26.06;51.44
79230;BME280;68663;49.122;17.544;2023-06-24T07:26:23;99772.44;;;26.06;51.44
79230;BME280;68663;49.122;17.544;2023-06-24T07:28:48;99782.97;;;26.05;51.32
79230;BME280;68663;49.122;17.544;2023-06-24T07:31:14;99779.75;;;26.03;50.96
79230;BME280;68663;49.122;17.544;2023-06-24T07:33:39;99782.97;;;26.05;51.36
79230;BME280;68663;49.122;17.544;2023-06-24T07:36:05;99778.09;;;26.06;50.98
79230;BME280;68663;49.122;17.544;2023-06-24T07:38:30;99781.34;;;26.04;51.02
79230;BME280;68663;49.122;17.544;2023-06-24T07:40:56;99781.34;;;26.04;51.50
79230;BME280;68663;49.122;17.544;2023-06-24T07:43:21;99787.47;;;26.02;50.72
79230;BME280;68663;49.122;17.544;2023-06-24T07:45:47;99794.38;;;26.01;50.38
79230;BME280;68663;49.122;17.544;2023-06-24T07:48:12;99790.72;;;26.01;50.72
79230;BME280;68663;49.122;17.544;2023-06-24T07:50:38;99791.94;;;26.00;50.62
79230;BME280;68663;49.122;17.544;2023-06-24T07:53:04;99790.72;;;26.01;50.87
79230;BME280;68663;49.122;17.544;2023-06-24T07:55:29;99796.31;;;26.05;50.85
79230;BME280;68663;49.122;17.544;2023-06-24T07:57:55;99792.25;;;26.06;50.84
79230;BME280;68663;49.122;17.544;2023-06-24T08:00:20;99797.94;;;26.06;50.38
79230;BME280;68663;49.122;17.544;2023-06-24T08:02:46;99798.72;;;26.06;50.72
79230;BME280;68663;49.122;17.544;2023-06-24T08:05:11;99799.59;;;26.03;50.53
79230;BME280;68663;49.122;17.544;2023-06-24T08:07:37;99805.19;;;26.07;50.52
79230;BME280;68663;49.122;17.544;2023-06-24T08:10:04;99803.53;;;26.09;50.36
79230;BME280;68663;49.122;17.544;2023-06-24T08:12:29;99813.63;;;26.10;50.46
79230;BME280;68663;49.122;17.544;2023-06-24T08:14:54;99818.44;;;26.13;50.45
79230;BME280;68663;49.122;17.544;2023-06-24T08:17:20;99820.03;;;26.14;50.62
79230;BME280;68663;49.122;17.544;2023-06-24T08:19:45;99810.28;;;26.15;50.15
79230;BME280;68663;49.122;17.544;2023-06-24T08:22:11;99821.63;;;26.15;50.78
79230;BME280;68663;49.122;17.544;2023-06-24T08:24:36;99822.88;;;26.14;50.29
79230;BME280;68663;49.122;17.544;2023-06-24T08:27:02;99824.91;;;26.14;50.24
79230;BME280;68663;49.122;17.544;2023-06-24T08:29:27;99828.53;;;26.14;50.36
79230;BME280;68663;49.122;17.544;2023-06-24T08:31:53;99824.91;;;26.14;50.59
79230;BME280;68663;49.122;17.544;2023-06-24T08:34:18;99832.59;;;26.13;50.35
79230;BME280;68663;49.122;17.544;2023-06-24T08:36:43;99839.50;;;26.12;50.52
79230;BME280;68663;49.122;17.544;2023-06-24T08:39:09;99835.44;;;26.13;50.33
79230;BME280;68663;49.122;17.544;2023-06-24T08:41:34;99842.69;;;26.14;50.40
79230;BME280;68663;49.122;17.544;2023-06-24T08:44:00;99846.69;;;26.17;50.52
79230;BME280;68663;49.122;17.544;2023-06-24T08:46:25;99841.47;;;26.15;50.46
79230;BME280;68663;49.122;17.544;2023-06-24T08:49:09;99850.34;;;26.17;50.76
79230;BME280;68663;49.122;17.544;2023-06-24T08:51:41;99850.34;;;26.17;50.72
79230;BME280;68663;49.122;17.544;2023-06-24T08:54:09;99851.13;;;26.18;50.46
79230;BME280;68663;49.122;17.544;2023-06-24T08:56:36;99852.75;;;26.19;50.59
79230;BME280;68663;49.122;17.544;2023-06-24T08:59:05;99854.78;;;26.18;50.52
79230;BME280;68663;49.122;17.544;2023-06-24T09:01:31;99860.44;;;26.18;50.57
79230;BME280;68663;49.122;17.544;2023-06-24T09:03:56;99859.66;;;26.18;50.73
79230;BME280;68663;49.122;17.544;2023-06-24T09:06:22;99858.84;;;26.17;50.48
79230;BME280;68663;49.122;17.544;2023-06-24T09:08:57;99863.72;;;26.17;51.41
79230;BME280;68663;49.122;17.544;2023-06-24T09:11:24;99869.81;;;26.15;51.82
79230;BME280;68663;49.122;17.544;2023-06-24T09:13:59;99869.81;;;26.15;51.05
79230;BME280;68663;49.122;17.544;2023-06-24T09:16:25;99867.78;;;26.16;50.78
79230;BME280;68663;49.122;17.544;2023-06-24T09:18:51;99865.38;;;26.14;50.85
79230;BME280;68663;49.122;17.544;2023-06-24T09:21:25;99871.84;;;26.15;51.18
79230;BME280;68663;49.122;17.544;2023-06-24T09:23:55;99871.03;;;26.14;50.54
79230;BME280;68663;49.122;17.544;2023-06-24T09:26:24;99876.28;;;26.16;51.17
79230;BME280;68663;49.122;17.544;2023-06-24T09:28:50;99882.63;;;26.23;51.24
79230;BME280;68663;49.122;17.544;2023-06-24T09:31:17;99883.00;;;26.25;51.93
79230;BME280;68663;49.122;17.544;2023-06-24T09:33:43;99882.88;;;26.32;52.43
79230;BME280;68663;49.122;17.544;2023-06-24T09:36:11;99884.00;;;26.39;53.64
79230;BME280;68663;49.122;17.544;2023-06-24T09:38:38;99885.81;;;26.49;55.49
79230;BME280;68663;49.122;17.544;2023-06-24T09:41:06;99880.38;;;26.58;56.07
79230;BME280;68663;49.122;17.544;2023-06-24T09:43:35;99889.09;;;26.67;53.92
79230;BME280;68663;49.122;17.544;2023-06-24T09:46:02;99884.16;;;26.71;53.14
79230;BME280;68663;49.122;17.544;2023-06-24T09:48:28;99887.72;;;26.75;52.36
79230;BME280;68663;49.122;17.544;2023-06-24T09:50:56;99886.94;;;26.75;52.44
79230;BME280;68663;49.122;17.544;2023-06-24T09:53:24;99886.94;;;26.75;53.05
79230;BME280;68663;49.122;17.544;2023-06-24T09:55:50;99885.25;;;26.77;52.23
79230;BME280;68663;49.122;17.544;2023-06-24T09:58:18;99885.25;;;26.77;52.02
79230;BME280;68663;49.122;17.544;2023-06-24T10:00:44;99894.13;;;26.79;52.94
79230;BME280;68663;49.122;17.544;2023-06-24T10:03:10;99888.38;;;26.83;57.82
79230;BME280;68663;49.122;17.544;2023-06-24T10:05:36;99891.28;;;26.79;60.08
79230;BME280;68663;49.122;17.544;2023-06-24T10:08:04;99896.69;;;26.74;55.10
79230;BME280;68663;49.122;17.544;2023-06-24T10:10:31;99896.81;;;26.86;54.09
79230;BME280;68663;49.122;17.544;2023-06-24T10:12:57;99899.66;;;26.86;52.74
79230;BME280;68663;49.122;17.544;2023-06-24T10:15:22;99902.09;;;26.88;52.61
79230;BME280;68663;49.122;17.544;2023-06-24T10:17:50;99896.41;;;26.88;52.58
79230;BME280;68663;49.122;17.544;2023-06-24T10:20:24;99898.81;;;26.89;52.08
79230;BME280;68663;49.122;17.544;2023-06-24T10:22:51;99892.16;;;27.00;56.99
79230;BME280;68663;49.122;17.544;2023-06-24T10:25:16;99887.19;;;27.04;54.02
79230;BME280;68663;49.122;17.544;2023-06-24T10:27:43;99893.66;;;27.04;52.56
79230;BME280;68663;49.122;17.544;2023-06-24T10:30:16;99895.28;;;27.05;51.49
79230;BME280;68663;49.122;17.544;2023-06-24T10:32:43;99897.59;;;27.10;55.22
79230;BME280;68663;49.122;17.544;2023-06-24T10:35:22;99902.81;;;27.32;56.92
79230;BME280;68663;49.122;17.544;2023-06-24T10:37:55;99894.47;;;27.41;53.61
79230;BME280;68663;49.122;17.544;2023-06-24T10:40:41;99898.47;;;27.43;51.95
79230;BME280;68663;49.122;17.544;2023-06-24T10:43:26;99902.47;;;27.46;51.38
79230;BME280;68663;49.122;17.544;2023-06-24T10:45:54;99897.25;;;27.44;50.58
79230;BME280;68663;49.122;17.544;2023-06-24T10:48:20;99901.69;;;27.45;50.68
79230;BME280;68663;49.122;17.544;2023-06-24T10:50:46;99906.56;;;27.45;50.31
79230;BME280;68663;49.122;17.544;2023-06-24T10:53:13;99903.28;;;27.46;50.05
79230;BME280;68663;49.122;17.544;2023-06-24T10:55:39;99902.13;;;27.44;50.17
79230;BME280;68663;49.122;17.544;2023-06-24T10:58:08;99912.31;;;27.41;50.09
79230;BME280;68663;49.122;17.544;2023-06-24T11:00:34;99906.28;;;27.39;50.13
79230;BME280;68663;49.122;17.544;2023-06-24T11:03:33;99907.97;;;27.37;49.70
79230;BME280;68663;49.122;17.544;2023-06-24T11:05:59;99902.72;;;27.35;49.38
79230;BME280;68663;49.122;17.544;2023-06-24T11:08:24;99906.44;;;27.32;49.41
79230;BME280;68663;49.122;17.544;2023-06-24T11:10:50;99904.84;;;27.31;48.97
79230;BME280;68663;49.122;17.544;2023-06-24T11:13:20;99902.88;;;27.28;49.14
79230;BME280;68663;49.122;17.544;2023-06-24T11:15:45;99898.09;;;27.25;49.09
79230;BME280;68663;49.122;17.544;2023-06-24T11:18:10;99898.88;;;27.25;49.21
79230;BME280;68663;49.122;17.544;2023-06-24T11:20:37;99890.81;;;27.24;49.26
79230;BME280;68663;49.122;17.544;2023-06-24T11:23:07;99897.28;;;27.24;49.20
79230;BME280;68663;49.122;17.544;2023-06-24T11:25:41;99898.53;;;27.23;48.92
79230;BME280;68663;49.122;17.544;2023-06-24T11:28:17;99895.75;;;27.20;48.41
79230;BME280;68663;49.122;17.544;2023-06-24T11:30:43;99899.13;;;27.15;47.33
79230;BME280;68663;49.122;17.544;2023-06-24T11:33:08;99891.47;;;27.12;47.12
79230;BME280;68663;49.122;17.544;2023-06-24T11:35:34;99899.19;;;27.11;47.02
79230;BME280;68663;49.122;17.544;2023-06-24T11:38:01;99892.88;;;27.04;46.60
79230;BME280;68663;49.122;17.544;2023-06-24T11:40:26;99889.59;;;27.05;46.61
79230;BME280;68663;49.122;17.544;2023-06-24T11:42:52;99890.41;;;27.06;47.09
79230;BME280;68663;49.122;17.544;2023-06-24T11:45:20;99883.91;;;27.05;46.74
79230;BME280;68663;49.122;17.544;2023-06-24T11:47:46;99889.16;;;27.07;46.77
79230;BME280;68663;49.122;17.544;2023-06-24T11:50:11;99884.34;;;27.04;47.14
79230;BME280;68663;49.122;17.544;2023-06-24T11:52:48;99874.25;;;27.03;47.03
79230;BME280;68663;49.122;17.544;2023-06-24T11:55:19;99871.84;;;27.01;46.93
79230;BME280;68663;49.122;17.544;2023-06-24T11:58:03;99864.63;;;26.96;47.31
79230;BME280;68663;49.122;17.544;2023-06-24T12:00:34;99866.25;;;26.98;47.69
79230;BME280;68663;49.122;17.544;2023-06-24T12:03:02;99864.63;;;26.96;47.93
79230;BME280;68663;49.122;17.544;2023-06-24T12:05:32;99863.81;;;26.96;47.86
79230;BME280;68663;49.122;17.544;2023-06-24T12:07:59;99863.41;;;26.98;47.94
79230;BME280;68663;49.122;17.544;2023-06-24T12:10:25;99870.28;;;26.96;48.29
79230;BME280;68663;49.122;17.544;2023-06-24T12:12:51;99877.63;;;26.94;47.33
79230;BME280;68663;49.122;17.544;2023-06-24T12:15:17;99871.16;;;26.93;46.47
79230;BME280;68663;49.122;17.544;2023-06-24T12:17:42;99863.97;;;26.89;46.38
79230;BME280;68663;49.122;17.544;2023-06-24T12:20:08;99872.09;;;26.87;45.94
79230;BME280;68663;49.122;17.544;2023-06-24T12:22:35;99859.13;;;26.86;46.00
79230;BME280;68663;49.122;17.544;2023-06-24T12:25:00;99864.81;;;26.86;46.02
79230;BME280;68663;49.122;17.544;2023-06-24T12:27:26;99859.13;;;26.86;45.91
79230;BME280;68663;49.122;17.544;2023-06-24T12:29:51;99853.97;;;26.81;46.02
79230;BME280;68663;49.122;17.544;2023-06-24T12:32:16;99871.78;;;26.81;46.22
79230;BME280;68663;49.122;17.544;2023-06-24T12:34:42;99884.38;;;26.80;45.79
79230;BME280;68663;49.122;17.544;2023-06-24T12:37:07;99874.72;;;26.78;45.57
79230;BME280;68663;49.122;17.544;2023-06-24T12:39:33;99867.44;;;26.77;45.92
79230;BME280;68663;49.122;17.544;2023-06-24T12:41:58;99871.56;;;26.72;45.52
79230;BME280;68663;49.122;17.544;2023-06-24T12:44:23;99875.28;;;26.69;46.03
79230;BME280;68663;49.122;17.544;2023-06-24T12:46:49;99876.16;;;26.66;45.80
79230;BME280;68663;49.122;17.544;2023-06-24T12:49:14;99873.31;;;26.66;46.05
79230;BME280;68663;49.122;17.544;2023-06-24T12:51:39;99877.75;;;26.67;46.15
79230;BME280;68663;49.122;17.544;2023-06-24T12:54:05;99872.44;;;26.69;46.34